Aviation Digital Data Service (ADDS)

Output produced by METARs form (0708 UTC 24 May 2015)
found at http://aviationweather.gov/adds/metars/
 
KPBG 240523Z 2406/2506 23005KT P6SM BKN120 WS020/27045KT 
     FM241200 22010KT P6SM BKN120 
     FM241600 25015G25KT P6SM SCT120 
     FM250000 21007KT P6SM SKC